sensor_id;sensor_type;location;lat;lon;timestamp;temperature;humidity
75296;DHT22;64623;44.738;37.804;2023-09-18T00:01:09;1.79;118.99
75296;DHT22;64623;44.738;37.804;2023-09-18T00:02:12;1.77;118.99
75296;DHT22;64623;44.738;37.804;2023-09-18T00:03:19;1.79;118.99
75296;DHT22;64623;44.738;37.804;2023-09-18T00:04:23;1.81;118.99
75296;DHT22;64623;44.738;37.804;2023-09-18T00:05:26;1.81;118.99
75296;DHT22;64623;44.738;37.804;2023-09-18T00:06:30;1.79;118.99
75296;DHT22;64623;44.738;37.804;2023-09-18T00:07:33;1.79;118.99
75296;DHT22;64623;44.738;37.804;2023-09-18T00:08:36;1.80;118.99
75296;DHT22;64623;44.738;37.804;2023-09-18T00:09:39;1.79;118.99
75296;DHT22;64623;44.738;37.804;2023-09-18T00:10:53;1.78;118.99
75296;DHT22;64623;44.738;37.804;2023-09-18T00:11:57;1.77;118.99
75296;DHT22;64623;44.738;37.804;2023-09-18T00:13:00;1.75;118.99
75296;DHT22;64623;44.738;37.804;2023-09-18T00:14:04;1.73;118.99
75296;DHT22;64623;44.738;37.804;2023-09-18T00:15:07;1.75;118.99
75296;DHT22;64623;44.738;37.804;2023-09-18T00:16:13;1.75;118.99
75296;DHT22;64623;44.738;37.804;2023-09-18T00:17:16;1.76;118.99
75296;DHT22;64623;44.738;37.804;2023-09-18T00:18:19;1.79;118.99
75296;DHT22;64623;44.738;37.804;2023-09-18T00:19:23;1.76;118.99
75296;DHT22;64623;44.738;37.804;2023-09-18T00:20:26;1.73;118.99
75296;DHT22;64623;44.738;37.804;2023-09-18T00:21:30;1.71;118.99
75296;DHT22;64623;44.738;37.804;2023-09-18T00:22:33;1.68;118.99
75296;DHT22;64623;44.738;37.804;2023-09-18T00:23:37;1.68;118.99
75296;DHT22;64623;44.738;37.804;2023-09-18T00:24:40;1.67;118.99
75296;DHT22;64623;44.738;37.804;2023-09-18T00:25:43;1.70;118.99
75296;DHT22;64623;44.738;37.804;2023-09-18T00:26:47;1.70;118.99
75296;DHT22;64623;44.738;37.804;2023-09-18T00:27:50;1.68;118.99
75296;DHT22;64623;44.738;37.804;2023-09-18T00:28:54;1.68;118.99
75296;DHT22;64623;44.738;37.804;2023-09-18T00:29:58;1.69;118.99
75296;DHT22;64623;44.738;37.804;2023-09-18T00:31:01;1.68;118.99
75296;DHT22;64623;44.738;37.804;2023-09-18T00:32:05;1.71;118.99
75296;DHT22;64623;44.738;37.804;2023-09-18T00:33:09;1.72;118.99
75296;DHT22;64623;44.738;37.804;2023-09-18T00:34:13;1.73;118.99
75296;DHT22;64623;44.738;37.804;2023-09-18T00:35:17;1.72;118.99
75296;DHT22;64623;44.738;37.804;2023-09-18T00:36:20;1.75;118.99
75296;DHT22;64623;44.738;37.804;2023-09-18T00:37:23;1.72;118.99
75296;DHT22;64623;44.738;37.804;2023-09-18T00:38:26;1.71;118.99
75296;DHT22;64623;44.738;37.804;2023-09-18T00:39:29;1.70;118.99
75296;DHT22;64623;44.738;37.804;2023-09-18T00:40:34;1.69;118.99
75296;DHT22;64623;44.738;37.804;2023-09-18T00:41:37;1.68;118.99
75296;DHT22;64623;44.738;37.804;2023-09-18T00:42:40;1.65;118.99
75296;DHT22;64623;44.738;37.804;2023-09-18T00:43:43;1.65;118.99
75296;DHT22;64623;44.738;37.804;2023-09-18T00:44:47;1.67;118.99
75296;DHT22;64623;44.738;37.804;2023-09-18T00:45:50;1.65;118.99
75296;DHT22;64623;44.738;37.804;2023-09-18T00:46:54;1.63;118.99
75296;DHT22;64623;44.738;37.804;2023-09-18T00:48:01;1.58;118.99
75296;DHT22;64623;44.738;37.804;2023-09-18T00:49:04;1.58;118.99
75296;DHT22;64623;44.738;37.804;2023-09-18T00:50:08;1.54;118.99
75296;DHT22;64623;44.738;37.804;2023-09-18T00:51:13;1.53;118.99
75296;DHT22;64623;44.738;37.804;2023-09-18T00:52:17;1.53;118.99
75296;DHT22;64623;44.738;37.804;2023-09-18T00:53:23;1.53;118.99
75296;DHT22;64623;44.738;37.804;2023-09-18T00:54:28;1.53;118.99
75296;DHT22;64623;44.738;37.804;2023-09-18T00:55:31;1.53;118.99
75296;DHT22;64623;44.738;37.804;2023-09-18T00:56:35;1.53;118.99
75296;DHT22;64623;44.738;37.804;2023-09-18T00:57:39;1.53;118.99
75296;DHT22;64623;44.738;37.804;2023-09-18T00:58:43;1.51;118.99
75296;DHT22;64623;44.738;37.804;2023-09-18T00:59:47;1.51;118.99
75296;DHT22;64623;44.738;37.804;2023-09-18T01:00:50;1.49;118.99
75296;DHT22;64623;44.738;37.804;2023-09-18T01:01:54;1.51;118.99
75296;DHT22;64623;44.738;37.804;2023-09-18T01:02:57;1.60;118.99
75296;DHT22;64623;44.738;37.804;2023-09-18T01:04:01;1.58;118.99
75296;DHT22;64623;44.738;37.804;2023-09-18T01:05:04;1.60;118.99
75296;DHT22;64623;44.738;37.804;2023-09-18T01:06:07;1.60;118.99
75296;DHT22;64623;44.738;37.804;2023-09-18T01:07:11;1.61;118.99
75296;DHT22;64623;44.738;37.804;2023-09-18T01:08:15;1.58;118.99
75296;DHT22;64623;44.738;37.804;2023-09-18T01:09:18;1.61;118.99
75296;DHT22;64623;44.738;37.804;2023-09-18T01:10:24;1.51;118.99
75296;DHT22;64623;44.738;37.804;2023-09-18T01:11:41;1.54;118.99
75296;DHT22;64623;44.738;37.804;2023-09-18T01:14:54;1.56;118.99
75296;DHT22;64623;44.738;37.804;2023-09-18T01:15:42;1.54;118.99
75296;DHT22;64623;44.738;37.804;2023-09-18T01:16:53;1.53;118.99
75296;DHT22;64623;44.738;37.804;2023-09-18T01:17:59;1.50;118.99
75296;DHT22;64623;44.738;37.804;2023-09-18T01:19:02;1.48;118.99
75296;DHT22;64623;44.738;37.804;2023-09-18T01:20:09;1.49;118.99
75296;DHT22;64623;44.738;37.804;2023-09-18T01:21:12;1.48;118.99
75296;DHT22;64623;44.738;37.804;2023-09-18T01:22:17;1.49;118.99
75296;DHT22;64623;44.738;37.804;2023-09-18T01:23:20;1.46;118.99
75296;DHT22;64623;44.738;37.804;2023-09-18T01:24:24;1.40;118.99
75296;DHT22;64623;44.738;37.804;2023-09-18T01:25:27;1.39;118.99
75296;DHT22;64623;44.738;37.804;2023-09-18T01:26:30;1.37;118.99
75296;DHT22;64623;44.738;37.804;2023-09-18T01:27:33;1.37;118.99
75296;DHT22;64623;44.738;37.804;2023-09-18T01:28:36;1.39;118.99
75296;DHT22;64623;44.738;37.804;2023-09-18T01:29:40;1.38;118.99
75296;DHT22;64623;44.738;37.804;2023-09-18T01:30:43;1.38;118.99
75296;DHT22;64623;44.738;37.804;2023-09-18T01:31:47;1.38;118.99
75296;DHT22;64623;44.738;37.804;2023-09-18T01:32:51;1.36;118.99
75296;DHT22;64623;44.738;37.804;2023-09-18T01:33:56;1.38;118.99
75296;DHT22;64623;44.738;37.804;2023-09-18T01:35:02;1.37;118.99
75296;DHT22;64623;44.738;37.804;2023-09-18T01:36:08;1.36;118.99
75296;DHT22;64623;44.738;37.804;2023-09-18T01:37:12;1.37;118.99
75296;DHT22;64623;44.738;37.804;2023-09-18T01:38:17;1.36;118.99
75296;DHT22;64623;44.738;37.804;2023-09-18T01:39:21;1.38;118.99
75296;DHT22;64623;44.738;37.804;2023-09-18T01:40:25;1.37;118.99
75296;DHT22;64623;44.738;37.804;2023-09-18T01:41:29;1.36;118.99
75296;DHT22;64623;44.738;37.804;2023-09-18T01:42:32;1.36;118.99
75296;DHT22;64623;44.738;37.804;2023-09-18T01:43:36;1.36;118.99
75296;DHT22;64623;44.738;37.804;2023-09-18T01:44:39;1.36;118.99
75296;DHT22;64623;44.738;37.804;2023-09-18T01:45:43;1.37;118.99
75296;DHT22;64623;44.738;37.804;2023-09-18T01:46:46;1.36;118.99
75296;DHT22;64623;44.738;37.804;2023-09-18T01:47:49;1.36;118.99
75296;DHT22;64623;44.738;37.804;2023-09-18T01:48:53;1.36;118.99
75296;DHT22;64623;44.738;37.804;2023-09-18T01:49:57;1.33;118.99
75296;DHT22;64623;44.738;37.804;2023-09-18T01:51:01;1.34;118.99
75296;DHT22;64623;44.738;37.804;2023-09-18T01:52:05;1.35;118.99
75296;DHT22;64623;44.738;37.804;2023-09-18T01:53:08;1.36;118.99
75296;DHT22;64623;44.738;37.804;2023-09-18T01:54:11;1.37;118.99
75296;DHT22;64623;44.738;37.804;2023-09-18T01:55:14;1.38;118.99
75296;DHT22;64623;44.738;37.804;2023-09-18T01:56:17;1.39;118.99
75296;DHT22;64623;44.738;37.804;2023-09-18T01:57:20;1.36;118.99
75296;DHT22;64623;44.738;37.804;2023-09-18T01:58:24;1.36;118.99
75296;DHT22;64623;44.738;37.804;2023-09-18T01:59:27;1.35;118.99
75296;DHT22;64623;44.738;37.804;2023-09-18T02:00:30;1.34;118.99
75296;DHT22;64623;44.738;37.804;2023-09-18T02:01:33;1.33;118.99
75296;DHT22;64623;44.738;37.804;2023-09-18T02:02:38;1.33;118.99
75296;DHT22;64623;44.738;37.804;2023-09-18T02:03:41;1.33;118.99
75296;DHT22;64623;44.738;37.804;2023-09-18T02:04:44;1.32;118.99
75296;DHT22;64623;44.738;37.804;2023-09-18T02:05:48;1.29;118.99
75296;DHT22;64623;44.738;37.804;2023-09-18T02:06:51;1.32;118.99
75296;DHT22;64623;44.738;37.804;2023-09-18T02:07:54;1.31;118.99
75296;DHT22;64623;44.738;37.804;2023-09-18T02:08:57;1.29;118.99
75296;DHT22;64623;44.738;37.804;2023-09-18T02:10:00;1.26;118.99
75296;DHT22;64623;44.738;37.804;2023-09-18T02:11:04;1.26;118.99
75296;DHT22;64623;44.738;37.804;2023-09-18T02:12:07;1.27;118.99
75296;DHT22;64623;44.738;37.804;2023-09-18T02:13:10;1.26;118.99
75296;DHT22;64623;44.738;37.804;2023-09-18T02:14:14;1.25;118.99
75296;DHT22;64623;44.738;37.804;2023-09-18T02:15:17;1.27;118.99
75296;DHT22;64623;44.738;37.804;2023-09-18T02:16:20;1.28;118.99
75296;DHT22;64623;44.738;37.804;2023-09-18T02:17:26;1.29;118.99
75296;DHT22;64623;44.738;37.804;2023-09-18T02:18:29;1.32;118.99
75296;DHT22;64623;44.738;37.804;2023-09-18T02:19:32;1.33;118.99
75296;DHT22;64623;44.738;37.804;2023-09-18T02:20:45;1.34;118.99
75296;DHT22;64623;44.738;37.804;2023-09-18T02:21:52;1.36;118.99
75296;DHT22;64623;44.738;37.804;2023-09-18T02:22:55;1.35;118.99
75296;DHT22;64623;44.738;37.804;2023-09-18T02:24:18;1.37;118.99
75296;DHT22;64623;44.738;37.804;2023-09-18T02:25:22;1.35;118.99
75296;DHT22;64623;44.738;37.804;2023-09-18T02:26:25;1.37;118.99
75296;DHT22;64623;44.738;37.804;2023-09-18T02:27:28;1.38;118.99
75296;DHT22;64623;44.738;37.804;2023-09-18T02:28:31;1.39;118.99
75296;DHT22;64623;44.738;37.804;2023-09-18T02:29:34;1.42;118.99
75296;DHT22;64623;44.738;37.804;2023-09-18T02:30:37;1.43;118.99
75296;DHT22;64623;44.738;37.804;2023-09-18T02:31:40;1.43;118.99
75296;DHT22;64623;44.738;37.804;2023-09-18T02:32:43;1.43;118.99
75296;DHT22;64623;44.738;37.804;2023-09-18T02:33:47;1.42;118.99
75296;DHT22;64623;44.738;37.804;2023-09-18T02:34:50;1.43;118.99
75296;DHT22;64623;44.738;37.804;2023-09-18T02:35:53;1.43;118.99
75296;DHT22;64623;44.738;37.804;2023-09-18T02:36:56;1.43;118.99
75296;DHT22;64623;44.738;37.804;2023-09-18T02:37:59;1.45;118.99
75296;DHT22;64623;44.738;37.804;2023-09-18T02:39:06;1.41;118.99
75296;DHT22;64623;44.738;37.804;2023-09-18T02:40:09;1.40;118.99
75296;DHT22;64623;44.738;37.804;2023-09-18T02:41:12;1.40;118.99
75296;DHT22;64623;44.738;37.804;2023-09-18T02:42:15;1.39;118.99
75296;DHT22;64623;44.738;37.804;2023-09-18T02:43:18;1.39;118.99
75296;DHT22;64623;44.738;37.804;2023-09-18T02:44:21;1.41;118.99
75296;DHT22;64623;44.738;37.804;2023-09-18T02:45:24;1.42;118.99
75296;DHT22;64623;44.738;37.804;2023-09-18T02:46:27;1.43;118.99
75296;DHT22;64623;44.738;37.804;2023-09-18T02:47:30;1.41;118.99
75296;DHT22;64623;44.738;37.804;2023-09-18T02:48:33;1.41;118.99
75296;DHT22;64623;44.738;37.804;2023-09-18T02:49:36;1.36;118.99
75296;DHT22;64623;44.738;37.804;2023-09-18T02:50:40;1.33;118.99
75296;DHT22;64623;44.738;37.804;2023-09-18T02:51:42;1.31;118.99
75296;DHT22;64623;44.738;37.804;2023-09-18T02:52:46;1.31;118.99
75296;DHT22;64623;44.738;37.804;2023-09-18T02:53:48;1.31;118.99
75296;DHT22;64623;44.738;37.804;2023-09-18T02:54:52;1.29;118.99
75296;DHT22;64623;44.738;37.804;2023-09-18T02:55:56;1.28;118.99
75296;DHT22;64623;44.738;37.804;2023-09-18T02:56:59;1.28;118.99
75296;DHT22;64623;44.738;37.804;2023-09-18T02:58:02;1.26;118.99
75296;DHT22;64623;44.738;37.804;2023-09-18T02:59:05;1.24;118.99
75296;DHT22;64623;44.738;37.804;2023-09-18T03:00:08;1.29;118.99
75296;DHT22;64623;44.738;37.804;2023-09-18T03:01:12;1.28;118.99
75296;DHT22;64623;44.738;37.804;2023-09-18T03:02:16;1.26;118.99
75296;DHT22;64623;44.738;37.804;2023-09-18T03:03:19;1.24;118.99
75296;DHT22;64623;44.738;37.804;2023-09-18T03:04:23;1.24;118.99
75296;DHT22;64623;44.738;37.804;2023-09-18T03:05:27;1.21;118.99
75296;DHT22;64623;44.738;37.804;2023-09-18T03:06:30;1.20;118.99
75296;DHT22;64623;44.738;37.804;2023-09-18T03:07:33;1.19;118.99
75296;DHT22;64623;44.738;37.804;2023-09-18T03:08:36;1.21;118.99
75296;DHT22;64623;44.738;37.804;2023-09-18T03:09:40;1.24;118.99
75296;DHT22;64623;44.738;37.804;2023-09-18T03:10:43;1.24;118.99
75296;DHT22;64623;44.738;37.804;2023-09-18T03:11:46;1.23;118.99
75296;DHT22;64623;44.738;37.804;2023-09-18T03:12:49;1.20;118.99
75296;DHT22;64623;44.738;37.804;2023-09-18T03:13:52;1.20;118.99
75296;DHT22;64623;44.738;37.804;2023-09-18T03:14:55;1.23;118.99
75296;DHT22;64623;44.738;37.804;2023-09-18T03:15:59;1.25;118.99
75296;DHT22;64623;44.738;37.804;2023-09-18T03:17:02;1.26;118.99
75296;DHT22;64623;44.738;37.804;2023-09-18T03:18:06;1.24;118.99
75296;DHT22;64623;44.738;37.804;2023-09-18T03:19:13;1.24;118.99
75296;DHT22;64623;44.738;37.804;2023-09-18T03:20:16;1.28;118.99
75296;DHT22;64623;44.738;37.804;2023-09-18T03:21:19;1.27;118.99
75296;DHT22;64623;44.738;37.804;2023-09-18T03:22:22;1.28;118.99
75296;DHT22;64623;44.738;37.804;2023-09-18T03:23:25;1.29;118.99
75296;DHT22;64623;44.738;37.804;2023-09-18T03:24:28;1.29;118.99
75296;DHT22;64623;44.738;37.804;2023-09-18T03:25:31;1.26;118.99
75296;DHT22;64623;44.738;37.804;2023-09-18T03:26:34;1.29;118.99
75296;DHT22;64623;44.738;37.804;2023-09-18T03:27:38;1.29;118.99
75296;DHT22;64623;44.738;37.804;2023-09-18T03:28:42;1.28;118.99
75296;DHT22;64623;44.738;37.804;2023-09-18T03:29:45;1.29;118.99
75296;DHT22;64623;44.738;37.804;2023-09-18T03:30:49;1.27;118.99
75296;DHT22;64623;44.738;37.804;2023-09-18T03:31:55;1.28;118.99
75296;DHT22;64623;44.738;37.804;2023-09-18T03:33:00;1.26;118.99
75296;DHT22;64623;44.738;37.804;2023-09-18T03:34:03;1.27;118.99
75296;DHT22;64623;44.738;37.804;2023-09-18T03:35:06;1.27;118.99
75296;DHT22;64623;44.738;37.804;2023-09-18T03:36:11;1.27;118.99
75296;DHT22;64623;44.738;37.804;2023-09-18T03:37:14;1.27;118.99
75296;DHT22;64623;44.738;37.804;2023-09-18T03:38:17;1.27;118.99
75296;DHT22;64623;44.738;37.804;2023-09-18T03:39:20;1.24;118.99
75296;DHT22;64623;44.738;37.804;2023-09-18T03:40:23;1.25;118.99
75296;DHT22;64623;44.738;37.804;2023-09-18T03:41:26;1.28;118.99
75296;DHT22;64623;44.738;37.804;2023-09-18T03:42:30;1.25;118.99
75296;DHT22;64623;44.738;37.804;2023-09-18T03:43:33;1.21;118.99
75296;DHT22;64623;44.738;37.804;2023-09-18T03:44:36;1.22;118.99
75296;DHT22;64623;44.738;37.804;2023-09-18T03:45:39;1.21;118.99
75296;DHT22;64623;44.738;37.804;2023-09-18T03:46:45;1.22;118.99
75296;DHT22;64623;44.738;37.804;2023-09-18T03:47:48;1.23;118.99
75296;DHT22;64623;44.738;37.804;2023-09-18T03:48:52;1.25;118.99
75296;DHT22;64623;44.738;37.804;2023-09-18T03:49:56;1.21;118.99
75296;DHT22;64623;44.738;37.804;2023-09-18T03:50:58;1.21;118.99
75296;DHT22;64623;44.738;37.804;2023-09-18T03:52:01;1.20;118.99
75296;DHT22;64623;44.738;37.804;2023-09-18T03:53:05;1.20;118.99
75296;DHT22;64623;44.738;37.804;2023-09-18T03:54:08;1.19;118.99
75296;DHT22;64623;44.738;37.804;2023-09-18T03:55:11;1.22;118.99
75296;DHT22;64623;44.738;37.804;2023-09-18T03:56:14;1.20;118.99
75296;DHT22;64623;44.738;37.804;2023-09-18T03:57:17;1.23;118.99
75296;DHT22;64623;44.738;37.804;2023-09-18T03:58:20;1.25;118.99
75296;DHT22;64623;44.738;37.804;2023-09-18T03:59:22;1.28;118.99
75296;DHT22;64623;44.738;37.804;2023-09-18T04:00:25;1.33;118.99
75296;DHT22;64623;44.738;37.804;2023-09-18T04:01:28;1.39;118.99
75296;DHT22;64623;44.738;37.804;2023-09-18T04:02:31;1.42;118.99
75296;DHT22;64623;44.738;37.804;2023-09-18T04:03:34;1.45;118.99
75296;DHT22;64623;44.738;37.804;2023-09-18T04:04:37;1.47;118.99
75296;DHT22;64623;44.738;37.804;2023-09-18T04:05:40;1.50;118.99
75296;DHT22;64623;44.738;37.804;2023-09-18T04:06:43;1.55;118.99
75296;DHT22;64623;44.738;37.804;2023-09-18T04:07:47;1.57;118.99
75296;DHT22;64623;44.738;37.804;2023-09-18T04:08:50;1.61;118.99
75296;DHT22;64623;44.738;37.804;2023-09-18T04:09:54;1.65;118.99
75296;DHT22;64623;44.738;37.804;2023-09-18T04:10:56;1.68;118.99
75296;DHT22;64623;44.738;37.804;2023-09-18T04:12:01;1.72;118.99
75296;DHT22;64623;44.738;37.804;2023-09-18T04:13:04;1.75;118.99
75296;DHT22;64623;44.738;37.804;2023-09-18T04:14:07;1.78;118.99
75296;DHT22;64623;44.738;37.804;2023-09-18T04:15:13;1.83;118.99
75296;DHT22;64623;44.738;37.804;2023-09-18T04:16:16;1.84;118.99
75296;DHT22;64623;44.738;37.804;2023-09-18T04:17:20;1.85;118.99
75296;DHT22;64623;44.738;37.804;2023-09-18T04:18:24;1.91;118.99
75296;DHT22;64623;44.738;37.804;2023-09-18T04:19:27;1.90;118.99
75296;DHT22;64623;44.738;37.804;2023-09-18T04:20:30;1.90;118.99
75296;DHT22;64623;44.738;37.804;2023-09-18T04:21:33;1.96;118.99
75296;DHT22;64623;44.738;37.804;2023-09-18T04:22:36;1.97;118.99
75296;DHT22;64623;44.738;37.804;2023-09-18T04:23:39;1.99;118.99
75296;DHT22;64623;44.738;37.804;2023-09-18T04:24:42;2.01;118.99
75296;DHT22;64623;44.738;37.804;2023-09-18T04:25:45;2.06;118.99
75296;DHT22;64623;44.738;37.804;2023-09-18T04:26:49;2.07;118.99
75296;DHT22;64623;44.738;37.804;2023-09-18T04:27:54;2.10;118.99
75296;DHT22;64623;44.738;37.804;2023-09-18T04:29:01;2.12;118.99
75296;DHT22;64623;44.738;37.804;2023-09-18T04:30:07;2.16;118.99
75296;DHT22;64623;44.738;37.804;2023-09-18T04:31:11;2.21;118.99
75296;DHT22;64623;44.738;37.804;2023-09-18T04:32:14;2.23;118.99
75296;DHT22;64623;44.738;37.804;2023-09-18T04:33:17;2.23;118.99
75296;DHT22;64623;44.738;37.804;2023-09-18T04:34:21;2.27;118.99
75296;DHT22;64623;44.738;37.804;2023-09-18T04:35:25;2.25;118.99
75296;DHT22;64623;44.738;37.804;2023-09-18T04:36:28;2.23;118.99
75296;DHT22;64623;44.738;37.804;2023-09-18T04:37:31;2.16;118.99
75296;DHT22;64623;44.738;37.804;2023-09-18T04:38:34;2.17;118.99
75296;DHT22;64623;44.738;37.804;2023-09-18T04:39:37;2.17;118.99
75296;DHT22;64623;44.738;37.804;2023-09-18T04:40:41;2.23;118.99
75296;DHT22;64623;44.738;37.804;2023-09-18T04:41:44;2.25;118.99
75296;DHT22;64623;44.738;37.804;2023-09-18T04:42:47;2.29;118.99
75296;DHT22;64623;44.738;37.804;2023-09-18T04:43:50;2.34;118.99
75296;DHT22;64623;44.738;37.804;2023-09-18T04:44:54;2.39;118.99
75296;DHT22;64623;44.738;37.804;2023-09-18T04:45:57;2.47;118.99
75296;DHT22;64623;44.738;37.804;2023-09-18T04:47:00;2.52;118.99
75296;DHT22;64623;44.738;37.804;2023-09-18T04:48:03;2.59;118.99
75296;DHT22;64623;44.738;37.804;2023-09-18T04:49:08;2.66;118.99
75296;DHT22;64623;44.738;37.804;2023-09-18T04:50:13;2.59;118.99
75296;DHT22;64623;44.738;37.804;2023-09-18T04:51:17;2.54;118.99
75296;DHT22;64623;44.738;37.804;2023-09-18T04:52:20;2.49;118.99
75296;DHT22;64623;44.738;37.804;2023-09-18T04:53:23;2.46;118.99
75296;DHT22;64623;44.738;37.804;2023-09-18T04:54:27;2.45;118.99
75296;DHT22;64623;44.738;37.804;2023-09-18T04:55:30;2.54;118.99
75296;DHT22;64623;44.738;37.804;2023-09-18T04:56:33;2.53;118.99
75296;DHT22;64623;44.738;37.804;2023-09-18T04:57:38;2.57;118.99
75296;DHT22;64623;44.738;37.804;2023-09-18T04:58:41;2.64;118.99
75296;DHT22;64623;44.738;37.804;2023-09-18T04:59:44;2.68;118.99
75296;DHT22;64623;44.738;37.804;2023-09-18T05:00:52;2.78;118.99
75296;DHT22;64623;44.738;37.804;2023-09-18T05:01:56;3.02;118.99
75296;DHT22;64623;44.738;37.804;2023-09-18T05:02:59;3.09;118.99
75296;DHT22;64623;44.738;37.804;2023-09-18T05:04:04;2.94;118.99
75296;DHT22;64623;44.738;37.804;2023-09-18T05:05:08;3.04;118.99
75296;DHT22;64623;44.738;37.804;2023-09-18T05:06:15;3.12;118.99
75296;DHT22;64623;44.738;37.804;2023-09-18T05:07:19;3.16;118.99
75296;DHT22;64623;44.738;37.804;2023-09-18T05:08:22;3.23;118.99
75296;DHT22;64623;44.738;37.804;2023-09-18T05:09:25;3.29;118.99
75296;DHT22;64623;44.738;37.804;2023-09-18T05:10:29;3.40;118.99
75296;DHT22;64623;44.738;37.804;2023-09-18T05:11:33;3.48;118.99
75296;DHT22;64623;44.738;37.804;2023-09-18T05:12:39;3.56;118.99
75296;DHT22;64623;44.738;37.804;2023-09-18T05:13:43;3.64;118.99
75296;DHT22;64623;44.738;37.804;2023-09-18T05:14:46;3.70;118.99
75296;DHT22;64623;44.738;37.804;2023-09-18T05:15:49;3.71;118.99
75296;DHT22;64623;44.738;37.804;2023-09-18T05:16:53;3.85;118.99
75296;DHT22;64623;44.738;37.804;2023-09-18T05:17:56;3.80;118.99
75296;DHT22;64623;44.738;37.804;2023-09-18T05:19:00;3.92;118.99
75296;DHT22;64623;44.738;37.804;2023-09-18T05:20:04;3.93;118.99
75296;DHT22;64623;44.738;37.804;2023-09-18T05:21:09;3.93;118.99
75296;DHT22;64623;44.738;37.804;2023-09-18T05:22:12;4.06;118.99
75296;DHT22;64623;44.738;37.804;2023-09-18T05:23:15;4.13;118.99
75296;DHT22;64623;44.738;37.804;2023-09-18T05:24:20;4.28;118.99
75296;DHT22;64623;44.738;37.804;2023-09-18T05:25:31;4.14;118.99
75296;DHT22;64623;44.738;37.804;2023-09-18T05:26:40;4.15;118.99
75296;DHT22;64623;44.738;37.804;2023-09-18T05:27:43;4.09;118.99
75296;DHT22;64623;44.738;37.804;2023-09-18T05:28:47;4.21;118.99
75296;DHT22;64623;44.738;37.804;2023-09-18T05:29:50;4.34;118.99
75296;DHT22;64623;44.738;37.804;2023-09-18T05:30:53;4.50;118.99
75296;DHT22;64623;44.738;37.804;2023-09-18T05:31:56;4.45;118.99
75296;DHT22;64623;44.738;37.804;2023-09-18T05:33:01;4.43;118.99
75296;DHT22;64623;44.738;37.804;2023-09-18T05:34:08;4.43;118.99
75296;DHT22;64623;44.738;37.804;2023-09-18T05:35:11;4.56;118.99
75296;DHT22;64623;44.738;37.804;2023-09-18T05:36:15;4.66;118.99
75296;DHT22;64623;44.738;37.804;2023-09-18T05:37:19;4.69;118.99
75296;DHT22;64623;44.738;37.804;2023-09-18T05:38:22;4.74;118.99
75296;DHT22;64623;44.738;37.804;2023-09-18T05:39:25;4.83;118.99
75296;DHT22;64623;44.738;37.804;2023-09-18T05:40:29;4.91;118.99
75296;DHT22;64623;44.738;37.804;2023-09-18T05:41:32;5.06;118.99
75296;DHT22;64623;44.738;37.804;2023-09-18T05:42:36;5.19;118.99
75296;DHT22;64623;44.738;37.804;2023-09-18T05:43:39;5.30;118.99
75296;DHT22;64623;44.738;37.804;2023-09-18T05:44:41;5.46;118.99
75296;DHT22;64623;44.738;37.804;2023-09-18T05:45:45;5.55;118.99
75296;DHT22;64623;44.738;37.804;2023-09-18T05:46:48;5.56;118.99
75296;DHT22;64623;44.738;37.804;2023-09-18T05:47:51;5.47;118.99
75296;DHT22;64623;44.738;37.804;2023-09-18T05:48:55;5.42;118.99
75296;DHT22;64623;44.738;37.804;2023-09-18T05:49:59;5.59;118.99
75296;DHT22;64623;44.738;37.804;2023-09-18T05:51:02;5.57;118.99
75296;DHT22;64623;44.738;37.804;2023-09-18T05:52:06;5.27;118.99
75296;DHT22;64623;44.738;37.804;2023-09-18T05:53:09;5.12;118.99
75296;DHT22;64623;44.738;37.804;2023-09-18T05:54:12;5.18;118.99
75296;DHT22;64623;44.738;37.804;2023-09-18T05:55:15;5.16;118.99
75296;DHT22;64623;44.738;37.804;2023-09-18T05:56:18;5.27;118.99
75296;DHT22;64623;44.738;37.804;2023-09-18T05:57:21;5.15;118.99
75296;DHT22;64623;44.738;37.804;2023-09-18T05:58:24;5.20;118.99
75296;DHT22;64623;44.738;37.804;2023-09-18T05:59:29;5.17;118.99
75296;DHT22;64623;44.738;37.804;2023-09-18T06:00:32;4.89;118.99
75296;DHT22;64623;44.738;37.804;2023-09-18T06:01:35;4.88;118.99
75296;DHT22;64623;44.738;37.804;2023-09-18T06:02:39;4.96;118.99
75296;DHT22;64623;44.738;37.804;2023-09-18T06:03:42;4.90;118.99
75296;DHT22;64623;44.738;37.804;2023-09-18T06:04:46;4.88;118.99
75296;DHT22;64623;44.738;37.804;2023-09-18T06:05:49;4.73;118.99
75296;DHT22;64623;44.738;37.804;2023-09-18T06:06:51;4.91;118.99
75296;DHT22;64623;44.738;37.804;2023-09-18T06:07:54;5.18;118.99
75296;DHT22;64623;44.738;37.804;2023-09-18T06:08:57;5.38;118.99
75296;DHT22;64623;44.738;37.804;2023-09-18T06:10:00;5.69;118.99
75296;DHT22;64623;44.738;37.804;2023-09-18T06:11:04;5.89;118.99
75296;DHT22;64623;44.738;37.804;2023-09-18T06:12:07;6.02;118.99
75296;DHT22;64623;44.738;37.804;2023-09-18T06:13:12;5.98;118.99
75296;DHT22;64623;44.738;37.804;2023-09-18T06:14:15;6.00;118.99
75296;DHT22;64623;44.738;37.804;2023-09-18T06:15:18;6.17;118.99
75296;DHT22;64623;44.738;37.804;2023-09-18T06:16:21;6.34;118.99
75296;DHT22;64623;44.738;37.804;2023-09-18T06:17:24;6.39;118.99
75296;DHT22;64623;44.738;37.804;2023-09-18T06:18:27;6.10;118.99
75296;DHT22;64623;44.738;37.804;2023-09-18T06:19:29;6.17;118.99
75296;DHT22;64623;44.738;37.804;2023-09-18T06:20:33;6.20;118.99
75296;DHT22;64623;44.738;37.804;2023-09-18T06:21:36;6.21;118.99
75296;DHT22;64623;44.738;37.804;2023-09-18T06:22:40;6.08;118.99
75296;DHT22;64623;44.738;37.804;2023-09-18T06:23:42;6.12;118.99
75296;DHT22;64623;44.738;37.804;2023-09-18T06:24:45;6.24;118.99
75296;DHT22;64623;44.738;37.804;2023-09-18T06:25:48;6.42;118.99
75296;DHT22;64623;44.738;37.804;2023-09-18T06:26:57;6.58;118.99
75296;DHT22;64623;44.738;37.804;2023-09-18T06:28:00;6.52;118.99
75296;DHT22;64623;44.738;37.804;2023-09-18T06:29:05;6.61;118.99
75296;DHT22;64623;44.738;37.804;2023-09-18T06:30:09;6.81;118.99
75296;DHT22;64623;44.738;37.804;2023-09-18T06:31:12;6.82;118.99
75296;DHT22;64623;44.738;37.804;2023-09-18T06:32:15;7.00;118.99
75296;DHT22;64623;44.738;37.804;2023-09-18T06:33:18;7.00;118.99
75296;DHT22;64623;44.738;37.804;2023-09-18T06:34:21;6.96;118.99
75296;DHT22;64623;44.738;37.804;2023-09-18T06:35:24;6.99;118.99
75296;DHT22;64623;44.738;37.804;2023-09-18T06:36:27;7.02;118.99
75296;DHT22;64623;44.738;37.804;2023-09-18T06:37:29;6.57;118.99
75296;DHT22;64623;44.738;37.804;2023-09-18T06:38:32;6.38;118.99